Time;durP1;ratioP1;P1;durP2;ratioP2;P2;SDS_P1;SDS_P2;PMS_P1;PMS_P2;Temp;Humidity;BMP_temperature;BMP_pressure;BME280_temperature;BME280_humidity;BME280_pressure;Samples;Min_cycle;Max_cycle;Signal;HPM_P1;HPM_P2
2024/01/07 00:02:20;;;;;;;23.35;12.38;;;11.00;99.90;;;;;;5048385;28;20121;-52
2024/01/07 00:04:46;;;;;;;22.65;11.35;;;11.00;99.90;;;;;;5044074;28;20041;-52
2024/01/07 00:07:11;;;;;;;19.33;11.95;;;10.90;99.90;;;;;;5010517;28;20053;-51
2024/01/07 00:09:37;;;;;;;23.73;12.55;;;10.90;99.90;;;;;;5010602;28;20474;-52
2024/01/07 00:12:03;;;;;;;21.40;13.75;;;10.90;99.90;;;;;;5010436;28;20050;-52
2024/01/07 00:14:29;;;;;;;20.88;12.38;;;10.90;99.90;;;;;;5023806;28;20113;-53
2024/01/07 00:16:54;;;;;;;23.13;14.15;;;11.00;99.90;;;;;;5010362;28;20552;-53
2024/01/07 00:19:20;;;;;;;21.98;14.65;;;10.90;99.90;;;;;;4945646;28;20045;-51
2024/01/07 00:21:46;;;;;;;23.88;14.13;;;10.90;99.90;;;;;;5010331;28;20037;-52
2024/01/07 00:24:11;;;;;;;25.45;15.30;;;10.90;99.90;;;;;;4993917;28;20042;-52
2024/01/07 00:26:37;;;;;;;25.77;16.05;;;10.90;99.90;;;;;;5010387;28;20042;-53
2024/01/07 00:29:03;;;;;;;18.77;14.02;;;11.10;99.90;;;;;;5010330;28;20081;-52
2024/01/07 00:31:29;;;;;;;17.73;11.82;;;11.10;99.90;;;;;;5010349;28;20048;-53
2024/01/07 00:33:55;;;;;;;18.58;9.73;;;11.20;99.90;;;;;;5010186;28;20065;-50
2024/01/07 00:36:21;;;;;;;13.43;8.48;;;11.20;99.90;;;;;;4993833;28;20117;-51
2024/01/07 00:38:46;;;;;;;11.70;7.45;;;11.20;99.90;;;;;;5041251;28;20048;-52
2024/01/07 00:41:12;;;;;;;10.73;7.43;;;11.20;99.90;;;;;;5052440;28;20029;-54
2024/01/07 00:43:38;;;;;;;13.65;7.00;;;11.30;99.90;;;;;;5051990;28;20029;-51
2024/01/07 00:46:04;;;;;;;10.23;6.07;;;11.30;99.90;;;;;;5033272;28;20063;-50
2024/01/07 00:48:30;;;;;;;10.07;7.20;;;11.30;99.90;;;;;;5052095;28;20025;-50
2024/01/07 00:50:55;;;;;;;11.10;6.82;;;11.40;99.90;;;;;;5051929;28;20041;-53
2024/01/07 00:53:21;;;;;;;14.82;7.43;;;11.40;99.90;;;;;;5051914;28;20029;-54
2024/01/07 00:55:47;;;;;;;11.82;8.00;;;11.50;99.90;;;;;;5052177;28;20029;-51
2024/01/07 00:58:13;;;;;;;12.45;6.53;;;11.50;99.90;;;;;;5052023;28;20108;-52
2024/01/07 01:00:38;;;;;;;12.07;6.60;;;11.40;99.90;;;;;;5032787;28;20053;-52
2024/01/07 01:03:04;;;;;;;13.25;7.95;;;11.50;99.90;;;;;;5050408;28;20020;-53
2024/01/07 01:05:30;;;;;;;13.20;6.80;;;11.50;99.90;;;;;;5051723;28;20040;-52
2024/01/07 01:07:55;;;;;;;10.13;7.03;;;11.50;99.90;;;;;;5051822;28;20037;-51
2024/01/07 01:10:22;;;;;;;13.57;6.63;;;11.60;99.90;;;;;;5049491;28;20069;-52
2024/01/07 01:12:47;;;;;;;10.13;6.97;;;11.60;99.90;;;;;;5051211;28;20040;-53
2024/01/07 01:15:16;;;;;;;13.15;6.88;;;11.60;99.90;;;;;;5015789;28;20037;-52
2024/01/07 01:17:42;;;;;;;11.70;8.02;;;11.70;99.90;;;;;;5051436;28;20507;-50
2024/01/07 01:20:08;;;;;;;9.77;6.57;;;11.80;99.90;;;;;;5051639;28;20060;-53
2024/01/07 01:22:34;;;;;;;12.75;7.57;;;11.80;99.90;;;;;;5031666;28;20472;-51
2024/01/07 01:25:01;;;;;;;11.30;7.15;;;11.90;99.90;;;;;;5032740;28;20082;-50
2024/01/07 01:27:26;;;;;;;13.13;7.65;;;11.90;99.90;;;;;;5051545;28;20480;-51
2024/01/07 01:29:52;;;;;;;14.73;6.90;;;12.00;99.90;;;;;;5049376;28;20040;-51
2024/01/07 01:32:19;;;;;;;12.88;6.75;;;12.00;99.90;;;;;;5051700;28;20040;-52
2024/01/07 01:34:44;;;;;;;9.60;7.30;;;11.80;99.90;;;;;;5032749;28;20037;-52
2024/01/07 01:37:11;;;;;;;10.95;6.70;;;11.80;99.90;;;;;;5051340;28;20235;-53
2024/01/07 01:39:40;;;;;;;9.10;6.85;;;11.70;99.90;;;;;;5051442;28;20111;-53
2024/01/07 01:42:07;;;;;;;11.20;6.45;;;11.70;99.90;;;;;;5051524;28;20033;-53
2024/01/07 01:44:33;;;;;;;12.63;7.32;;;11.50;99.90;;;;;;5032668;28;20041;-52
2024/01/07 01:47:00;;;;;;;11.65;7.85;;;11.60;99.90;;;;;;5051653;28;20025;-51
2024/01/07 01:49:26;;;;;;;11.88;7.40;;;11.60;99.90;;;;;;5051201;28;20040;-54
2024/01/07 01:51:52;;;;;;;13.05;9.00;;;11.60;99.90;;;;;;5051637;28;20048;-50
2024/01/07 01:54:19;;;;;;;15.65;8.13;;;11.60;99.90;;;;;;5051270;28;20028;-52
2024/01/07 01:56:46;;;;;;;12.00;8.45;;;11.60;99.90;;;;;;5051373;28;20033;-51
2024/01/07 01:59:12;;;;;;;9.80;6.22;;;11.60;99.90;;;;;;5051104;28;20493;-52
2024/01/07 02:01:39;;;;;;;12.48;6.97;;;11.50;99.90;;;;;;5032465;28;20126;-52
2024/01/07 02:04:05;;;;;;;12.45;7.85;;;11.60;99.90;;;;;;5051291;28;20028;-52
2024/01/07 02:06:30;;;;;;;14.45;8.25;;;11.50;99.90;;;;;;5051482;28;20025;-52
2024/01/07 02:08:56;;;;;;;14.75;8.75;;;11.50;99.90;;;;;;5050955;28;20048;-52
2024/01/07 02:11:22;;;;;;;13.38;8.80;;;11.60;99.90;;;;;;5032324;28;20037;-52
2024/01/07 02:13:48;;;;;;;14.88;9.38;;;11.50;99.90;;;;;;5051331;28;20021;-51
2024/01/07 02:16:15;;;;;;;14.75;10.30;;;11.60;99.90;;;;;;5051273;28;20074;-51
2024/01/07 02:18:42;;;;;;;14.05;9.10;;;11.60;99.90;;;;;;5050667;28;20083;-51
2024/01/07 02:21:09;;;;;;;14.20;10.00;;;;;;;;;;5051334;28;20030;-51
2024/01/07 02:23:35;;;;;;;14.75;9.52;;;11.70;99.90;;;;;;5051229;28;20033;-51
2024/01/07 02:26:01;;;;;;;16.55;10.23;;;11.60;99.90;;;;;;5051563;28;20075;-51
2024/01/07 02:28:27;;;;;;;18.90;11.57;;;11.60;99.90;;;;;;5054875;28;20025;-51
2024/01/07 02:30:53;;;;;;;21.15;11.85;;;11.50;99.90;;;;;;5054493;28;20039;-50
2024/01/07 02:33:18;;;;;;;21.38;12.02;;;11.60;99.90;;;;;;5054508;28;20032;-51
2024/01/07 02:35:44;;;;;;;26.38;14.00;;;11.60;99.90;;;;;;5054412;28;20032;-51
2024/01/07 02:38:10;;;;;;;22.45;14.23;;;11.60;99.90;;;;;;5054530;28;20029;-51
2024/01/07 02:40:36;;;;;;;26.48;15.98;;;11.70;99.90;;;;;;5035419;28;20037;-53
2024/01/07 02:43:01;;;;;;;25.52;15.82;;;11.80;99.90;;;;;;5054416;28;20108;-51
2024/01/07 02:45:27;;;;;;;24.55;15.68;;;;;;;;;;5054555;28;20411;-53
2024/01/07 02:47:53;;;;;;;34.20;19.77;;;;;;;;;;5054294;28;20021;-51
2024/01/07 02:50:19;;;;;;;44.83;24.63;;;11.70;99.90;;;;;;5035666;28;20033;-51
2024/01/07 02:52:45;;;;;;;32.60;18.95;;;12.00;99.90;;;;;;5054011;28;20488;-51
2024/01/07 02:55:11;;;;;;;27.58;16.98;;;12.00;99.90;;;;;;5054264;28;20032;-51
2024/01/07 02:57:37;;;;;;;26.80;14.45;;;12.00;99.90;;;;;;5035270;28;20037;-52
2024/01/07 03:00:04;;;;;;;24.35;15.02;;;;;;;;;;5054171;28;20139;-52
2024/01/07 03:02:30;;;;;;;22.35;14.63;;;;;;;;;;5054076;28;20024;-51
2024/01/07 03:04:56;;;;;;;21.30;13.30;;;11.60;99.90;;;;;;5054081;28;20029;-51
2024/01/07 03:07:22;;;;;;;19.25;13.10;;;11.30;99.90;;;;;;5053472;28;20102;-50
2024/01/07 03:09:51;;;;;;;21.55;12.90;;;11.30;99.90;;;;;;5034728;28;20040;-51
2024/01/07 03:12:17;;;;;;;24.02;12.20;;;11.40;99.90;;;;;;5035083;28;20136;-52
2024/01/07 03:14:43;;;;;;;18.88;10.75;;;11.20;99.90;;;;;;5031244;28;20120;-52
2024/01/07 03:17:10;;;;;;;13.70;9.93;;;11.10;99.90;;;;;;5014692;28;20034;-50
2024/01/07 03:19:37;;;;;;;14.55;9.13;;;;;;;;;;4998054;28;20037;-51
2024/01/07 03:22:05;;;;;;;14.85;10.20;;;;;;;;;;5031401;28;20044;-50
2024/01/07 03:24:31;;;;;;;17.35;9.85;;;;;;;;;;5031144;28;20056;-54
2024/01/07 03:26:57;;;;;;;14.23;8.98;;;;;;;;;;5031358;28;20033;-50
2024/01/07 03:29:23;;;;;;;15.75;8.25;;;11.00;99.90;;;;;;5031004;28;20037;-50
2024/01/07 03:31:50;;;;;;;13.52;7.85;;;;;;;;;;5030974;28;20504;-51
2024/01/07 03:34:16;;;;;;;11.15;6.80;;;10.80;99.90;;;;;;5031166;28;20052;-51
2024/01/07 03:36:42;;;;;;;9.77;6.95;;;10.60;99.90;;;;;;5030380;28;20038;-53
2024/01/07 03:39:08;;;;;;;10.65;6.40;;;10.50;99.90;;;;;;5030996;28;20084;-52
2024/01/07 03:41:34;;;;;;;9.43;6.28;;;;;;;;;;5030857;28;20033;-52
2024/01/07 03:44:00;;;;;;;9.77;6.10;;;;;;;;;;4997900;28;20072;-50
2024/01/07 03:46:26;;;;;;;9.88;6.53;;;;;;;;;;5048840;28;20131;-51
2024/01/07 03:48:52;;;;;;;10.80;6.20;;;;;;;;;;5053290;28;20377;-51
2024/01/07 03:51:18;;;;;;;9.73;7.22;;;;;;;;;;5050892;28;20187;-52
2024/01/07 03:53:44;;;;;;;12.95;8.35;;;10.50;99.90;;;;;;5053107;28;20029;-53
2024/01/07 03:56:10;;;;;;;16.05;9.57;;;10.60;99.90;;;;;;5053078;28;20021;-53
2024/01/07 03:58:35;;;;;;;16.38;10.07;;;10.60;99.90;;;;;;5052734;28;20068;-51
2024/01/07 04:01:01;;;;;;;14.40;9.43;;;10.70;99.90;;;;;;5052880;28;20036;-54
2024/01/07 04:03:27;;;;;;;17.73;10.27;;;10.50;99.90;;;;;;5052897;28;20021;-51
2024/01/07 04:05:53;;;;;;;19.33;10.38;;;10.50;99.90;;;;;;5052721;28;20440;-50
2024/01/07 04:08:18;;;;;;;18.70;10.32;;;10.40;99.90;;;;;;5050742;28;20370;-51
2024/01/07 04:10:44;;;;;;;21.05;9.95;;;10.20;99.90;;;;;;5000810;28;20618;-51
2024/01/07 04:13:10;;;;;;;16.45;9.98;;;10.30;99.90;;;;;;5052592;28;20025;-52
2024/01/07 04:15:36;;;;;;;17.45;9.80;;;10.30;99.90;;;;;;5053053;28;20033;-51
2024/01/07 04:18:03;;;;;;;15.27;9.68;;;10.20;99.90;;;;;;5052711;28;20052;-53
2024/01/07 04:20:29;;;;;;;15.88;8.98;;;10.10;99.90;;;;;;5052639;28;20446;-52
2024/01/07 04:22:55;;;;;;;11.88;7.43;;;10.10;99.90;;;;;;5052266;28;20029;-51
2024/01/07 04:25:21;;;;;;;11.60;7.63;;;10.10;99.90;;;;;;5052987;28;20025;-53
2024/01/07 04:27:47;;;;;;;13.07;8.23;;;10.10;99.90;;;;;;5052548;28;20029;-53
2024/01/07 04:30:13;;;;;;;14.77;8.85;;;10.10;99.90;;;;;;5052024;28;20037;-52
2024/01/07 04:32:38;;;;;;;13.02;8.85;;;10.10;99.90;;;;;;5033476;28;20079;-54
2024/01/07 04:35:06;;;;;;;13.95;8.57;;;10.10;99.90;;;;;;5052437;28;20166;-54
2024/01/07 04:37:32;;;;;;;17.38;10.02;;;10.20;99.90;;;;;;5052218;28;20037;-52
2024/01/07 04:39:58;;;;;;;17.52;10.60;;;10.30;99.90;;;;;;5052185;28;20029;-51
2024/01/07 04:42:24;;;;;;;18.15;10.90;;;10.30;99.90;;;;;;5033635;28;20033;-53
2024/01/07 04:44:50;;;;;;;22.10;10.80;;;10.50;99.90;;;;;;5052039;28;20059;-51
2024/01/07 04:47:35;;;;;;;21.27;12.00;;;10.50;99.90;;;;;;5052129;28;20028;-53
2024/01/07 04:50:01;;;;;;;21.00;12.02;;;10.60;99.90;;;;;;5050922;28;20162;-53
2024/01/07 04:52:27;;;;;;;23.38;12.82;;;10.70;99.90;;;;;;5051902;28;20048;-50
2024/01/07 04:54:54;;;;;;;26.63;14.65;;;10.40;99.90;;;;;;5051954;28;20029;-52
2024/01/07 04:57:20;;;;;;;32.85;17.40;;;10.80;99.90;;;;;;5033145;28;20480;-53
2024/01/07 04:59:47;;;;;;;35.55;19.40;;;10.80;99.90;;;;;;5033107;28;20147;-52
2024/01/07 05:02:12;;;;;;;32.70;19.45;;;10.90;99.90;;;;;;5051753;28;20035;-53
2024/01/07 05:04:38;;;;;;;33.90;21.38;;;10.90;99.90;;;;;;5051902;28;20025;-54
2024/01/07 05:07:04;;;;;;;35.95;20.52;;;10.90;99.90;;;;;;5032899;28;20116;-52
2024/01/07 05:09:31;;;;;;;33.58;19.85;;;;;;;;;;5052232;28;20457;-52
2024/01/07 05:11:57;;;;;;;27.33;18.58;;;11.00;99.90;;;;;;5050982;28;20480;-52
2024/01/07 05:14:23;;;;;;;27.02;16.88;;;11.00;99.90;;;;;;5051608;28;20037;-51
2024/01/07 05:16:49;;;;;;;27.25;16.77;;;11.10;99.90;;;;;;5051738;28;20495;-50
2024/01/07 05:19:15;;;;;;;20.58;13.98;;;11.00;99.90;;;;;;5051981;28;20025;-53
2024/01/07 05:21:40;;;;;;;18.50;13.63;;;11.00;99.90;;;;;;5032382;28;20037;-51
2024/01/07 05:24:06;;;;;;;19.65;12.30;;;11.00;99.90;;;;;;5032752;28;20041;-53
2024/01/07 05:26:39;;;;;;;16.50;11.93;;;11.00;99.90;;;;;;5051918;28;20769;-54
2024/01/07 05:29:05;;;;;;;16.50;12.10;;;11.00;99.90;;;;;;5051694;28;20076;-52
2024/01/07 05:31:31;;;;;;;16.42;11.65;;;10.90;99.90;;;;;;5050734;28;20354;-52
2024/01/07 05:33:57;;;;;;;17.50;11.98;;;10.90;99.90;;;;;;5051804;28;20086;-52
2024/01/07 05:36:22;;;;;;;16.63;11.55;;;10.90;99.90;;;;;;5051734;28;20033;-52
2024/01/07 05:38:48;;;;;;;19.55;13.27;;;10.90;99.90;;;;;;5051553;28;20028;-53
2024/01/07 05:41:14;;;;;;;17.02;12.65;;;10.80;99.90;;;;;;5032821;28;20094;-51
2024/01/07 05:43:39;;;;;;;18.50;12.75;;;10.60;99.90;;;;;;5051290;28;20086;-53
2024/01/07 05:46:05;;;;;;;18.77;13.75;;;10.40;99.90;;;;;;5032668;28;20044;-51
2024/01/07 05:48:44;;;;;;;19.63;13.93;;;10.30;99.90;;;;;;5051357;28;20036;-53
2024/01/07 05:51:10;;;;;;;18.73;15.48;;;10.10;99.90;;;;;;5051517;28;20029;-53
2024/01/07 05:53:36;;;;;;;22.23;15.90;;;10.20;99.90;;;;;;5051444;28;20067;-53
2024/01/07 05:56:02;;;;;;;23.02;17.67;;;10.20;99.90;;;;;;5051355;28;20088;-53
2024/01/07 05:58:28;;;;;;;22.60;17.33;;;10.40;99.90;;;;;;5032330;28;20045;-51
2024/01/07 06:00:54;;;;;;;28.10;22.63;;;10.40;99.90;;;;;;5052601;28;20400;-51
2024/01/07 06:03:20;;;;;;;23.75;20.13;;;10.40;99.90;;;;;;5036309;28;20037;-52
2024/01/07 06:05:45;;;;;;;29.33;21.33;;;10.40;99.90;;;;;;5055129;28;20037;-52
2024/01/07 06:08:12;;;;;;;29.70;21.83;;;10.50;99.90;;;;;;5055208;28;20095;-51
2024/01/07 06:10:39;;;;;;;32.78;23.60;;;10.40;99.90;;;;;;5054783;28;20036;-52
2024/01/07 06:13:05;;;;;;;33.35;23.80;;;10.40;99.90;;;;;;5054991;28;20025;-50
2024/01/07 06:15:30;;;;;;;32.58;26.08;;;10.20;99.90;;;;;;5055053;28;20083;-51
2024/01/07 06:17:56;;;;;;;36.97;28.00;;;10.20;99.90;;;;;;5055092;28;20484;-51
2024/01/07 06:20:22;;;;;;;34.22;25.83;;;10.10;99.90;;;;;;5054667;28;20036;-51
2024/01/07 06:22:48;;;;;;;36.85;28.75;;;9.90;99.90;;;;;;5054387;28;20036;-53
2024/01/07 06:25:14;;;;;;;38.90;30.23;;;9.80;99.90;;;;;;5035421;28;20037;-53
2024/01/07 06:27:41;;;;;;;48.20;37.50;;;9.80;99.90;;;;;;5034824;28;20120;-51
2024/01/07 06:30:07;;;;;;;70.65;47.20;;;10.00;99.90;;;;;;5054092;28;20031;-51
2024/01/07 06:32:33;;;;;;;73.45;45.40;;;9.80;99.90;;;;;;5053078;28;20033;-53
2024/01/07 06:34:59;;;;;;;99.65;60.33;;;9.90;99.90;;;;;;5054459;28;20107;-52
2024/01/07 06:37:25;;;;;;;49.95;36.58;;;9.70;99.90;;;;;;5054568;28;20449;-52
2024/01/07 06:39:51;;;;;;;96.75;59.85;;;9.80;99.90;;;;;;5054656;28;20119;-52
2024/01/07 06:42:17;;;;;;;47.90;35.83;;;9.80;99.90;;;;;;5054220;28;20028;-52
2024/01/07 06:44:43;;;;;;;46.65;33.05;;;9.70;99.90;;;;;;5054477;28;20021;-52
2024/01/07 06:47:08;;;;;;;53.47;34.25;;;9.70;99.90;;;;;;5054635;28;20456;-53
2024/01/07 06:49:34;;;;;;;43.05;33.55;;;9.80;99.90;;;;;;5054648;28;20552;-53
2024/01/07 06:52:00;;;;;;;42.95;32.60;;;9.90;99.90;;;;;;5035467;28;20049;-50
2024/01/07 06:54:25;;;;;;;42.78;31.55;;;9.80;99.90;;;;;;5054183;28;20039;-53
2024/01/07 06:56:51;;;;;;;43.28;33.08;;;9.70;99.90;;;;;;5054130;28;20033;-50
2024/01/07 06:59:17;;;;;;;64.10;45.80;;;9.60;99.90;;;;;;5054107;28;20107;-50
2024/01/07 07:01:43;;;;;;;46.55;36.13;;;9.60;99.90;;;;;;5053626;28;20425;-51
2024/01/07 07:04:09;;;;;;;47.05;35.28;;;;;;;;;;5053978;28;20071;-53
2024/01/07 07:06:35;;;;;;;50.40;36.60;;;;;;;;;;5054079;28;20439;-52
2024/01/07 07:09:01;;;;;;;47.05;34.67;;;;;;;;;;5053959;28;20029;-52
2024/01/07 07:11:27;;;;;;;50.03;37.08;;;;;;;;;;5050695;28;20404;-51
2024/01/07 07:13:53;;;;;;;53.92;35.47;;;;;;;;;;5053590;28;20021;-52
2024/01/07 07:16:19;;;;;;;50.10;35.72;;;;;;;;;;5033911;28;20122;-50
2024/01/07 07:18:46;;;;;;;48.38;36.40;;;;;;;;;;5057763;28;20035;-52
2024/01/07 07:21:12;;;;;;;51.45;36.15;;;;;;;;;;5059400;28;20021;-49
2024/01/07 07:23:38;;;;;;;48.42;35.88;;;;;;;;;;5038716;28;20124;-52
2024/01/07 07:26:04;;;;;;;50.22;36.85;;;9.70;99.90;;;;;;5061008;28;20029;-53
2024/01/07 07:28:29;;;;;;;49.58;36.35;;;9.70;99.90;;;;;;5036280;28;20523;-50
2024/01/07 07:30:55;;;;;;;51.72;39.30;;;9.60;99.90;;;;;;5052141;28;20547;-50
2024/01/07 07:33:21;;;;;;;53.53;36.92;;;9.60;99.90;;;;;;5033078;28;20048;-52
2024/01/07 07:35:47;;;;;;;53.45;37.67;;;9.70;99.90;;;;;;5015926;28;20400;-51
2024/01/07 07:38:12;;;;;;;50.45;35.72;;;9.60;99.90;;;;;;5032634;28;20408;-52
2024/01/07 07:40:38;;;;;;;58.33;38.67;;;9.60;99.90;;;;;;5051734;28;20135;-49
2024/01/07 07:43:04;;;;;;;53.35;38.35;;;9.50;99.90;;;;;;5052482;28;20024;-50
2024/01/07 07:45:29;;;;;;;57.25;39.83;;;9.50;99.90;;;;;;5051927;28;20032;-50
2024/01/07 07:47:55;;;;;;;60.60;40.38;;;9.50;99.90;;;;;;5052296;28;20035;-51
2024/01/07 07:50:21;;;;;;;55.83;39.20;;;9.50;99.90;;;;;;5053083;28;20032;-51
2024/01/07 07:52:47;;;;;;;55.85;39.58;;;9.50;99.90;;;;;;5052321;28;20048;-53
2024/01/07 07:55:13;;;;;;;58.63;38.45;;;9.50;99.90;;;;;;5033206;28;20503;-54
2024/01/07 07:57:38;;;;;;;53.50;34.83;;;9.50;99.90;;;;;;5016947;28;20047;-50
2024/01/07 08:00:11;;;;;;;61.53;43.45;;;9.30;99.90;;;;;;5051173;28;20144;-54
2024/01/07 08:02:36;;;;;;;65.72;43.45;;;9.20;99.90;;;;;;5033562;28;20045;-50
2024/01/07 08:05:03;;;;;;;60.15;42.00;;;;;;;;;;5052185;28;20035;-54
2024/01/07 08:07:29;;;;;;;53.05;36.08;;;;;;;;;;5052111;28;20037;-51
2024/01/07 08:09:57;;;;;;;65.60;45.22;;;;;;;;;;5051631;28;20033;-53
2024/01/07 08:12:23;;;;;;;68.97;44.42;;;9.10;99.90;;;;;;5050443;28;20041;-53
2024/01/07 08:14:49;;;;;;;68.10;43.50;;;;;;;;;;5050103;28;20079;-53
2024/01/07 08:17:15;;;;;;;87.03;54.78;;;;;;;;;;5032585;28;20056;-52
2024/01/07 08:19:41;;;;;;;72.93;47.65;;;;;;;;;;5051432;28;20087;-56
2024/01/07 08:22:09;;;;;;;63.13;43.17;;;;;;;;;;5051878;28;20350;-52
2024/01/07 08:24:34;;;;;;;51.90;38.50;;;8.90;99.90;;;;;;5032291;28;20076;-51
2024/01/07 08:27:02;;;;;;;59.05;40.53;;;9.10;99.90;;;;;;5051290;28;20143;-56
2024/01/07 08:29:28;;;;;;;75.25;53.70;;;9.10;99.90;;;;;;5052509;28;20120;-53
2024/01/07 08:31:54;;;;;;;64.97;47.15;;;9.10;99.90;;;;;;5051280;28;20568;-51
2024/01/07 08:34:20;;;;;;;50.25;36.65;;;9.00;99.90;;;;;;5033511;28;20110;-54
2024/01/07 08:36:46;;;;;;;45.95;35.53;;;9.20;99.90;;;;;;5032720;28;20037;-55
2024/01/07 08:39:14;;;;;;;48.30;35.78;;;9.30;99.90;;;;;;5052428;28;20384;-53
2024/01/07 08:41:40;;;;;;;46.90;36.15;;;9.50;99.90;;;;;;5052188;28;20025;-52
2024/01/07 08:44:08;;;;;;;46.28;35.08;;;9.70;99.90;;;;;;5016432;28;20120;-52
2024/01/07 08:46:34;;;;;;;42.50;29.85;;;9.80;99.90;;;;;;5051160;28;20079;-55
2024/01/07 08:49:00;;;;;;;40.20;28.40;;;9.80;99.90;;;;;;5051239;28;20029;-51
2024/01/07 08:51:26;;;;;;;45.35;34.92;;;9.70;99.90;;;;;;5050828;28;20044;-57
2024/01/07 08:53:51;;;;;;;42.65;32.20;;;9.70;99.90;;;;;;5052059;28;20120;-57
2024/01/07 08:56:18;;;;;;;44.17;34.20;;;9.80;99.90;;;;;;5051891;28;20104;-53
2024/01/07 08:58:43;;;;;;;39.78;30.38;;;9.90;99.90;;;;;;5050085;28;20040;-55
2024/01/07 09:01:09;;;;;;;37.92;29.30;;;9.80;99.90;;;;;;5051404;28;20569;-53
2024/01/07 09:03:35;;;;;;;36.92;28.45;;;9.80;99.90;;;;;;5052052;28;20028;-50
2024/01/07 09:06:02;;;;;;;40.03;29.77;;;9.80;99.90;;;;;;5054912;28;20053;-53
2024/01/07 09:08:28;;;;;;;36.38;26.63;;;9.80;99.90;;;;;;5050296;28;20033;-54
2024/01/07 09:10:53;;;;;;;39.20;30.25;;;9.80;99.90;;;;;;5051618;28;20409;-54
2024/01/07 09:13:19;;;;;;;38.78;30.05;;;9.90;99.90;;;;;;5051234;28;20033;-52
2024/01/07 09:15:45;;;;;;;37.45;27.02;;;10.10;99.90;;;;;;5051623;28;20083;-53
2024/01/07 09:18:11;;;;;;;39.83;29.05;;;10.10;99.90;;;;;;5050877;28;20120;-52
2024/01/07 09:20:37;;;;;;;36.83;28.13;;;10.30;99.90;;;;;;5051787;28;20064;-54
2024/01/07 09:23:03;;;;;;;36.63;29.00;;;10.50;99.90;;;;;;5051539;28;20052;-53
2024/01/07 09:25:29;;;;;;;32.90;25.55;;;10.80;99.90;;;;;;5051601;28;20028;-52
2024/01/07 09:27:55;;;;;;;33.53;25.02;;;;;;;;;;5051052;28;20483;-54
2024/01/07 09:30:21;;;;;;;32.72;26.52;;;11.30;99.90;;;;;;5051027;28;20029;-52
2024/01/07 09:32:46;;;;;;;34.33;24.35;;;11.30;99.90;;;;;;5051412;28;20366;-51
2024/01/07 09:35:12;;;;;;;29.25;22.38;;;11.10;99.90;;;;;;5052266;28;20055;-52
2024/01/07 09:37:38;;;;;;;31.30;24.10;;;11.00;99.90;;;;;;5055515;28;20029;-52
2024/01/07 09:40:06;;;;;;;28.33;23.30;;;11.10;99.90;;;;;;5055543;28;20409;-53
2024/01/07 09:42:32;;;;;;;27.35;21.60;;;11.10;99.90;;;;;;5055104;28;20029;-53
2024/01/07 09:45:06;;;;;;;28.17;22.70;;;11.00;99.90;;;;;;5053069;28;20408;-54
2024/01/07 09:47:32;;;;;;;28.13;22.67;;;10.90;99.90;;;;;;5055251;28;20036;-52
2024/01/07 09:49:58;;;;;;;28.30;21.98;;;11.00;99.90;;;;;;5055027;28;20029;-52
2024/01/07 09:52:26;;;;;;;28.38;21.88;;;11.00;99.90;;;;;;5036309;28;20045;-52
2024/01/07 09:54:58;;;;;;;29.58;22.50;;;11.00;99.90;;;;;;5055441;28;20048;-54
2024/01/07 09:57:23;;;;;;;26.15;22.52;;;10.80;99.90;;;;;;5055150;28;20033;-51
2024/01/07 09:59:50;;;;;;;29.63;22.50;;;10.70;99.90;;;;;;5055101;28;20389;-53
2024/01/07 10:02:16;;;;;;;29.77;22.10;;;10.80;99.90;;;;;;5055162;28;20029;-56
2024/01/07 10:04:42;;;;;;;27.70;22.80;;;;;;;;;;5054900;28;20040;-51
2024/01/07 10:07:08;;;;;;;26.00;20.42;;;10.90;99.90;;;;;;5054773;28;20025;-53
2024/01/07 10:09:34;;;;;;;31.30;22.88;;;10.80;99.90;;;;;;5054872;28;20037;-54
2024/01/07 10:12:00;;;;;;;27.58;21.90;;;10.90;99.90;;;;;;5054862;28;20091;-53
2024/01/07 10:14:26;;;;;;;29.73;22.52;;;10.80;99.90;;;;;;5054937;28;20102;-56
2024/01/07 10:16:54;;;;;;;30.60;25.20;;;10.90;99.90;;;;;;5054777;28;20037;-53
2024/01/07 10:19:24;;;;;;;30.50;22.65;;;10.90;99.90;;;;;;5055129;28;20041;-53
2024/01/07 10:22:00;;;;;;;25.08;20.25;;;10.90;99.90;;;;;;5054701;28;20037;-52
2024/01/07 10:24:26;;;;;;;25.70;20.48;;;10.90;99.90;;;;;;5054809;28;20092;-54
2024/01/07 10:26:52;;;;;;;29.27;20.63;;;10.90;99.90;;;;;;5054546;28;20064;-53
2024/01/07 10:29:18;;;;;;;28.92;21.02;;;10.90;99.90;;;;;;5054977;28;20060;-56
2024/01/07 10:31:43;;;;;;;24.77;19.52;;;10.80;99.90;;;;;;5053561;28;20060;-53
2024/01/07 10:34:13;;;;;;;26.40;21.20;;;10.70;99.90;;;;;;5054519;28;20439;-52
2024/01/07 10:36:40;;;;;;;27.30;21.85;;;10.70;99.90;;;;;;5035632;28;20041;-53
2024/01/07 10:39:06;;;;;;;28.70;22.10;;;10.70;99.90;;;;;;5054759;28;20033;-51
2024/01/07 10:41:36;;;;;;;28.30;23.08;;;10.70;99.90;;;;;;5032030;28;20111;-52
2024/01/07 10:44:02;;;;;;;30.65;24.77;;;;;;;;;;5034569;28;20052;-53
2024/01/07 10:46:30;;;;;;;38.95;26.15;;;;;;;;;;5031423;28;20045;-56
2024/01/07 10:49:04;;;;;;;28.15;23.42;;;10.60;99.90;;;;;;5033882;28;20048;-54
2024/01/07 10:51:34;;;;;;;68.47;37.38;;;10.40;99.90;;;;;;5032713;28;20370;-53
2024/01/07 10:54:00;;;;;;;61.13;38.33;;;10.40;99.90;;;;;;5034136;28;20424;-51
2024/01/07 10:56:35;;;;;;;84.28;54.92;;;10.40;99.90;;;;;;5034297;28;20037;-51
2024/01/07 10:59:03;;;;;;;74.97;49.10;;;10.40;99.90;;;;;;5049962;28;20102;-53
2024/01/07 11:01:29;;;;;;;65.30;48.00;;;10.40;99.90;;;;;;5054256;28;20059;-52
2024/01/07 11:04:17;;;;;;;31.20;25.20;;;10.50;99.90;;;;;;5053113;28;20417;-53
2024/01/07 11:06:49;;;;;;;35.17;27.17;;;10.40;99.90;;;;;;5052465;28;20033;-51
2024/01/07 11:09:29;;;;;;;26.77;22.23;;;10.50;99.90;;;;;;5034504;28;20026;-54
2024/01/07 11:11:56;;;;;;;38.20;29.77;;;10.50;99.90;;;;;;5033918;28;20136;-52
2024/01/07 11:14:52;;;;;;;30.75;23.25;;;10.50;99.90;;;;;;5033974;28;20029;-54
2024/01/07 11:17:38;;;;;;;38.28;28.58;;;10.40;99.90;;;;;;5033810;28;20037;-55
2024/01/07 11:20:14;;;;;;;35.78;24.50;;;10.40;99.90;;;;;;5026629;28;20099;-52
2024/01/07 11:22:39;;;;;;;26.98;22.42;;;10.30;99.90;;;;;;5048212;28;20108;-52
2024/01/07 11:25:30;;;;;;;24.88;18.13;;;10.30;99.90;;;;;;5050266;28;20041;-53
2024/01/07 11:27:57;;;;;;;26.98;21.17;;;10.20;99.90;;;;;;5053621;28;20094;-55
2024/01/07 11:30:23;;;;;;;26.77;20.27;;;10.30;99.90;;;;;;5053278;28;20041;-52
2024/01/07 11:32:59;;;;;;;25.77;19.85;;;10.30;99.90;;;;;;5053198;28;20393;-54
2024/01/07 11:35:57;;;;;;;24.60;20.10;;;10.30;99.90;;;;;;5050769;28;20400;-53
2024/01/07 11:38:23;;;;;;;27.98;21.55;;;10.30;99.90;;;;;;5051199;28;20124;-53
2024/01/07 11:40:50;;;;;;;27.83;20.00;;;10.10;99.90;;;;;;5033798;28;20453;-56
2024/01/07 11:43:16;;;;;;;24.05;19.08;;;10.10;99.90;;;;;;5033975;28;20047;-55
2024/01/07 11:45:41;;;;;;;27.83;19.15;;;10.10;99.90;;;;;;5053548;28;20115;-51
2024/01/07 11:48:07;;;;;;;26.77;20.98;;;10.00;99.90;;;;;;5053112;28;20033;-53
2024/01/07 11:50:35;;;;;;;22.30;18.40;;;9.80;99.90;;;;;;5053126;28;20044;-52
2024/01/07 11:53:01;;;;;;;26.92;21.85;;;9.70;99.90;;;;;;5053104;28;20044;-54
2024/01/07 11:55:28;;;;;;;25.63;20.25;;;9.70;99.90;;;;;;5052570;28;20029;-51
2024/01/07 11:57:55;;;;;;;27.40;20.38;;;9.70;99.90;;;;;;5052217;28;20048;-56
2024/01/07 12:00:22;;;;;;;24.00;18.38;;;9.80;99.90;;;;;;5053003;28;20053;-56
2024/01/07 12:02:47;;;;;;;26.65;22.02;;;9.70;99.90;;;;;;5052777;28;20393;-54
2024/01/07 12:05:15;;;;;;;33.63;27.45;;;9.70;99.90;;;;;;5052752;28;20048;-51
2024/01/07 12:07:42;;;;;;;28.17;21.60;;;9.80;99.90;;;;;;5032464;28;20055;-53
2024/01/07 12:10:11;;;;;;;24.42;19.60;;;9.80;99.90;;;;;;5051451;28;20119;-51
2024/01/07 12:12:39;;;;;;;26.73;20.52;;;9.80;99.90;;;;;;5051310;28;20087;-52
2024/01/07 12:15:07;;;;;;;24.98;19.90;;;9.80;99.90;;;;;;5050456;28;20041;-54
2024/01/07 12:17:33;;;;;;;30.33;23.17;;;9.90;99.90;;;;;;5050373;28;20047;-55
2024/01/07 12:20:00;;;;;;;28.83;22.02;;;9.80;99.90;;;;;;5052386;28;20397;-55
2024/01/07 12:22:27;;;;;;;33.47;24.02;;;9.90;99.90;;;;;;5052854;28;20037;-54
2024/01/07 12:25:03;;;;;;;28.70;22.98;;;9.90;99.90;;;;;;5052239;28;20590;-52
2024/01/07 12:27:30;;;;;;;31.20;22.30;;;10.00;99.90;;;;;;5050437;28;20522;-53
2024/01/07 12:29:59;;;;;;;27.38;20.65;;;10.00;99.90;;;;;;5051898;28;20435;-56
2024/01/07 12:32:29;;;;;;;24.92;17.00;;;10.10;99.90;;;;;;5052058;28;20432;-52
2024/01/07 12:34:59;;;;;;;21.58;17.67;;;9.90;99.90;;;;;;5052552;28;20040;-55
2024/01/07 12:37:28;;;;;;;20.60;17.02;;;9.90;99.90;;;;;;5033482;28;20045;-55
2024/01/07 12:39:54;;;;;;;21.33;16.20;;;10.00;99.90;;;;;;5083680;28;20420;-53
2024/01/07 12:42:21;;;;;;;19.15;15.70;;;10.00;99.90;;;;;;5052511;28;20040;-52